PWSweather.com
Personal Weather Stations
Station Observations

AwhituWaiuku, CA 268400

Lat: -37.058, Lon: -174.6346

Elevation: 250

Station Type: Personal

http://www.weather-display.com/windy/gb/grahamsbeach.htm

High Low Average
Temperature 66.2°F19.0°C 53.6°F12.0°C 59.3°F15.2°C
Dew Point 55.3°F12.9°C 46.9°F8.3°C 49.9°F9.9°C
Winds 13.8 mph 22.2 kmh 2.3 mph 3.7 kmh 8.0 mph SE12.9 kmh SE
Wind Gusts 19.6 mph31.5 kmh 3.5 mph5.6 kmh 12.0 mph19.3 kmh
Humidity 89% 59% 71%
Pressure 29.93 in1013.5 mb 29.81 in1009.5 mb -
Precipitation 0.12 in3.0 mm - -
Hour Temp Dew Point Humidity Winds Wind Gusts Pressure Precip Precip Rate Daily Precip Total
12:00 AM 53.8°F12.1°C 47.8°F8.8°C 80% 12.7 mph SE20.4 kmh SE 16.1 mph25.9 kmh 29.93 in1013.5 mb - 0.00 in0.0 mm 0.00 in0.0 mm
12:30 AM 53.6°F12.0°C 47.6°F8.7°C 80% 9.2 mph SE14.8 kmh SE 12.7 mph20.4 kmh 29.92 in1013.2 mb - 0.00 in0.0 mm 0.00 in0.0 mm
01:00 AM 54.1°F12.3°C 47.7°F8.7°C 79% 10.4 mph SE16.7 kmh SE 15.0 mph24.1 kmh 29.91 in1012.9 mb - 0.00 in0.0 mm 0.00 in0.0 mm
01:30 AM 54.4°F12.4°C 48.0°F8.9°C 79% 11.5 mph SE18.5 kmh SE 18.4 mph29.6 kmh 29.91 in1012.9 mb - 0.00 in0.0 mm 0.00 in0.0 mm
02:00 AM 54.8°F12.7°C 48.1°F8.9°C 78% 9.2 mph SE14.8 kmh SE 11.5 mph18.5 kmh 29.90 in1012.5 mb - 0.00 in0.0 mm 0.00 in0.0 mm
02:30 AM 54.9°F12.7°C 48.2°F9.0°C 78% 6.9 mph SE11.1 kmh SE 9.2 mph14.8 kmh 29.90 in1012.5 mb - 0.00 in0.0 mm 0.00 in0.0 mm
03:30 AM 55.5°F13.1°C 47.7°F8.7°C 75% 9.2 mph SE14.8 kmh SE 10.4 mph16.7 kmh 29.89 in1012.2 mb - 0.00 in0.0 mm 0.00 in0.0 mm
04:00 AM 55.1°F12.8°C 48.4°F9.1°C 78% 4.6 mph SE7.4 kmh SE 6.9 mph11.1 kmh 29.89 in1012.2 mb - 0.00 in0.0 mm 0.00 in0.0 mm
04:30 AM 54.8°F12.7°C 48.4°F9.1°C 79% 5.8 mph SSE9.3 kmh SSE 11.5 mph18.5 kmh 29.89 in1012.2 mb - 0.01 in0.3 mm 0.01 in0.3 mm
05:00 AM 54.6°F12.6°C 48.6°F9.2°C 80% 4.6 mph S7.4 kmh S 4.6 mph7.4 kmh 29.89 in1012.2 mb - 0.00 in0.0 mm 0.01 in0.3 mm
05:30 AM 54.2°F12.3°C 48.8°F9.3°C 82% 4.6 mph SE7.4 kmh SE 6.9 mph11.1 kmh 29.90 in1012.5 mb - 0.01 in0.3 mm 0.02 in0.5 mm
06:00 AM 53.9°F12.2°C 49.2°F9.6°C 84% 2.3 mph SE3.7 kmh SE 3.5 mph5.6 kmh 29.90 in1012.5 mb - 0.00 in0.0 mm 0.02 in0.5 mm
06:30 AM 53.8°F12.1°C 49.4°F9.7°C 85% 2.3 mph SE3.7 kmh SE 3.5 mph5.6 kmh 29.91 in1012.9 mb - 0.02 in0.5 mm 0.04 in1.0 mm
07:00 AM 53.7°F12.1°C 49.6°F9.8°C 86% 5.8 mph SE9.3 kmh SE 8.1 mph13.0 kmh 29.91 in1012.9 mb - 0.03 in0.8 mm 0.07 in1.8 mm
07:30 AM 53.6°F12.0°C 50.4°F10.2°C 89% 5.8 mph SE9.3 kmh SE 9.2 mph14.8 kmh 29.92 in1013.2 mb - 0.03 in0.8 mm 0.10 in2.5 mm
08:00 AM 54.2°F12.3°C 50.7°F10.4°C 88% 8.1 mph SE13.0 kmh SE 12.7 mph20.4 kmh 29.92 in1013.2 mb - 0.00 in0.0 mm 0.10 in2.5 mm
08:30 AM 54.8°F12.7°C 51.6°F10.9°C 89% 5.8 mph S9.3 kmh S 9.2 mph14.8 kmh 29.93 in1013.5 mb - 0.02 in0.5 mm 0.12 in3.0 mm
09:00 AM 56.8°F13.8°C 53.0°F11.7°C 87% 5.8 mph S9.3 kmh S 6.9 mph11.1 kmh 29.91 in1012.9 mb - 0.00 in0.0 mm 0.12 in3.0 mm
09:30 AM 59.1°F15.1°C 52.3°F11.3°C 78% 6.9 mph SE11.1 kmh SE 12.7 mph20.4 kmh 29.91 in1012.9 mb - 0.00 in0.0 mm 0.12 in3.0 mm
10:00 AM 61.1°F16.2°C 52.0°F11.1°C 72% 13.8 mph SE22.2 kmh SE 18.4 mph29.6 kmh 29.90 in1012.5 mb - 0.00 in0.0 mm 0.12 in3.0 mm
10:30 AM 61.7°F16.5°C 51.4°F10.8°C 69% 12.7 mph ESE20.4 kmh ESE 13.8 mph22.2 kmh 29.90 in1012.5 mb - 0.00 in0.0 mm 0.12 in3.0 mm
11:00 AM 63.2°F17.3°C 52.0°F11.1°C 67% 12.7 mph SE20.4 kmh SE 15.0 mph24.1 kmh 29.89 in1012.2 mb - 0.00 in0.0 mm 0.12 in3.0 mm
11:30 AM 66.2°F19.0°C 55.3°F12.9°C 68% 9.2 mph S14.8 kmh S 15.0 mph24.1 kmh 29.88 in1011.9 mb - 0.00 in0.0 mm 0.12 in3.0 mm
12:00 PM 65.0°F18.3°C 52.1°F11.2°C 63% 10.4 mph SE16.7 kmh SE 12.7 mph20.4 kmh 29.87 in1011.5 mb - 0.00 in0.0 mm 0.12 in3.0 mm
12:30 PM 65.0°F18.3°C 51.7°F10.9°C 62% 13.8 mph SE22.2 kmh SE 19.6 mph31.5 kmh 29.87 in1011.5 mb - 0.00 in0.0 mm 0.12 in3.0 mm
01:00 PM 65.4°F18.6°C 52.0°F11.1°C 62% 10.4 mph SE16.7 kmh SE 18.4 mph29.6 kmh 29.87 in1011.5 mb - 0.00 in0.0 mm 0.12 in3.0 mm
01:30 PM 64.5°F18.1°C 50.8°F10.4°C 61% 11.5 mph SE18.5 kmh SE 15.0 mph24.1 kmh 29.86 in1011.2 mb - 0.00 in0.0 mm 0.12 in3.0 mm
02:00 PM 65.3°F18.5°C 51.9°F11.1°C 62% 10.4 mph SE16.7 kmh SE 13.8 mph22.2 kmh 29.86 in1011.2 mb - 0.00 in0.0 mm 0.12 in3.0 mm
02:30 PM 64.9°F18.3°C 53.6°F12.0°C 67% 11.5 mph S18.5 kmh S 17.3 mph27.8 kmh 29.86 in1011.2 mb - 0.00 in0.0 mm 0.12 in3.0 mm
03:00 PM 64.3°F17.9°C 54.4°F12.4°C 70% 11.5 mph S18.5 kmh S 18.4 mph29.6 kmh 29.84 in1010.5 mb - 0.00 in0.0 mm 0.12 in3.0 mm
03:30 PM 64.5°F18.1°C 53.3°F11.8°C 67% 4.6 mph WSW7.4 kmh WSW 8.1 mph13.0 kmh 29.83 in1010.2 mb - 0.00 in0.0 mm 0.12 in3.0 mm
04:00 PM 64.8°F18.2°C 50.6°F10.3°C 60% 9.2 mph SE14.8 kmh SE 12.7 mph20.4 kmh 29.83 in1010.2 mb - 0.00 in0.0 mm 0.12 in3.0 mm
04:30 PM 62.6°F17.0°C 51.9°F11.1°C 68% 9.2 mph S14.8 kmh S 8.1 mph13.0 kmh 29.82 in1009.8 mb - 0.00 in0.0 mm 0.12 in3.0 mm
05:00 PM 64.2°F17.9°C 51.8°F11.0°C 64% 5.8 mph S9.3 kmh S 11.5 mph18.5 kmh 29.82 in1009.8 mb - 0.00 in0.0 mm 0.12 in3.0 mm
05:30 PM 64.9°F18.3°C 50.3°F10.2°C 59% 13.8 mph SSE22.2 kmh SSE 17.3 mph27.8 kmh 29.81 in1009.5 mb - 0.00 in0.0 mm 0.12 in3.0 mm
06:00 PM 62.6°F17.0°C 49.0°F9.4°C 61% 13.8 mph SE22.2 kmh SE 17.3 mph27.8 kmh 29.82 in1009.8 mb - 0.00 in0.0 mm 0.12 in3.0 mm
06:30 PM 61.7°F16.5°C 49.0°F9.4°C 63% 11.5 mph ESE18.5 kmh ESE 17.3 mph27.8 kmh 29.83 in1010.2 mb - 0.00 in0.0 mm 0.12 in3.0 mm
07:00 PM 61.2°F16.2°C 48.1°F8.9°C 62% 8.1 mph SE13.0 kmh SE 12.7 mph20.4 kmh 29.84 in1010.5 mb - 0.00 in0.0 mm 0.12 in3.0 mm
07:30 PM 60.8°F16.0°C 47.3°F8.5°C 61% 6.9 mph SE11.1 kmh SE 10.4 mph16.7 kmh 29.85 in1010.8 mb - 0.00 in0.0 mm 0.12 in3.0 mm
08:00 PM 60.4°F15.8°C 47.7°F8.7°C 63% 4.6 mph SE7.4 kmh SE 6.9 mph11.1 kmh 29.86 in1011.2 mb - 0.00 in0.0 mm 0.12 in3.0 mm
08:30 PM 59.7°F15.4°C 47.5°F8.6°C 64% 9.2 mph SE14.8 kmh SE 12.7 mph20.4 kmh 29.87 in1011.5 mb - 0.00 in0.0 mm 0.12 in3.0 mm
09:00 PM 59.6°F15.3°C 47.8°F8.8°C 65% 5.8 mph SE9.3 kmh SE 6.9 mph11.1 kmh 29.88 in1011.9 mb - 0.00 in0.0 mm 0.12 in3.0 mm
09:30 PM 59.6°F15.3°C 47.4°F8.6°C 64% 10.4 mph SE16.7 kmh SE 12.7 mph20.4 kmh 29.88 in1011.9 mb - 0.00 in0.0 mm 0.12 in3.0 mm
10:00 PM 59.4°F15.2°C 47.2°F8.4°C 64% 5.8 mph SE9.3 kmh SE 12.7 mph20.4 kmh 29.89 in1012.2 mb - 0.00 in0.0 mm 0.12 in3.0 mm
10:30 PM 58.4°F14.7°C 47.5°F8.6°C 67% 5.8 mph SE9.3 kmh SE 9.2 mph14.8 kmh 29.89 in1012.2 mb - 0.00 in0.0 mm 0.12 in3.0 mm
11:00 PM 58.6°F14.8°C 46.9°F8.3°C 65% 5.8 mph ESE9.3 kmh ESE 9.2 mph14.8 kmh 29.88 in1011.9 mb - 0.00 in0.0 mm 0.12 in3.0 mm
11:30 PM 58.7°F14.8°C 47.0°F8.3°C 65% 2.3 mph SE3.7 kmh SE 4.6 mph7.4 kmh 29.88 in1011.9 mb - 0.00 in0.0 mm 0.12 in3.0 mm